BWA282 TTPP-TLPC
Flight info
| Callsign | BWA282 |
|---|---|
| Flight time | 0h 56m |
| Altitude | 16000 |
| Route | ELTUN CAI SLU |
| Aircraft | AT76/M-SDFGHIRWY/LB1 |
Departure
| Time | 2026-04-23 21:20 |
|---|---|
| Airport | Piarco International Airport (TTPP) |
Arrival
| Time | 2026-04-23 22:16 |
|---|---|
| Airport | George F. L. Charles Airport (TLPC) |
| Time | Latitude | Longitude | Altitude | Speed | Heading |
|---|---|---|---|---|---|
| 2026-04-23 20:55 | 10.60015 | -61.33673 | 44 ft | 0 kts | 66° |
| 2026-04-23 21:14 | 10.60020 | -61.33665 | 44 ft | 6 kts | 45° |
| 2026-04-23 21:14 | 10.60048 | -61.33680 | 44 ft | 3 kts | 238° |
| 2026-04-23 21:15 | 10.60009 | -61.33689 | 44 ft | 12 kts | 194° |
| 2026-04-23 21:15 | 10.59931 | -61.33709 | 43 ft | 11 kts | 193° |
| 2026-04-23 21:15 | 10.59861 | -61.33731 | 43 ft | 10 kts | 218° |
| 2026-04-23 21:15 | 10.59834 | -61.33807 | 42 ft | 13 kts | 269° |
| 2026-04-23 21:16 | 10.59836 | -61.33911 | 42 ft | 16 kts | 271° |
| 2026-04-23 21:16 | 10.59837 | -61.34032 | 40 ft | 18 kts | 268° |
| 2026-04-23 21:16 | 10.59835 | -61.34139 | 39 ft | 12 kts | 265° |
| 2026-04-23 21:16 | 10.59771 | -61.34175 | 39 ft | 11 kts | 179° |
| 2026-04-23 21:17 | 10.59711 | -61.34192 | 39 ft | 9 kts | 239° |
| 2026-04-23 21:17 | 10.59708 | -61.34273 | 38 ft | 14 kts | 270° |
| 2026-04-23 21:17 | 10.59707 | -61.34376 | 37 ft | 14 kts | 269° |
| 2026-04-23 21:17 | 10.59707 | -61.34471 | 36 ft | 9 kts | 269° |
| 2026-04-23 21:18 | 10.59676 | -61.34525 | 35 ft | 10 kts | 205° |
| 2026-04-23 21:18 | 10.59613 | -61.34527 | 35 ft | 8 kts | 179° |
| 2026-04-23 21:18 | 10.59563 | -61.34526 | 35 ft | 5 kts | 179° |
| 2026-04-23 21:18 | 10.59537 | -61.34518 | 35 ft | 3 kts | 133° |
| 2026-04-23 21:19 | 10.59534 | -61.34499 | 35 ft | 0 kts | 89° |
| 2026-04-23 21:19 | 10.59535 | -61.34376 | 37 ft | 48 kts | 90° |
| 2026-04-23 21:19 | 10.59534 | -61.33820 | 43 ft | 106 kts | 91° |
| 2026-04-23 21:20 | 10.59553 | -61.33020 | 429 ft | 111 kts | 91° |
| 2026-04-23 21:20 | 10.59608 | -61.32215 | 913 ft | 123 kts | 90° |
| 2026-04-23 21:20 | 10.59543 | -61.31339 | 1458 ft | 122 kts | 90° |
| 2026-04-23 21:20 | 10.59566 | -61.30466 | 1899 ft | 134 kts | 71° |
| 2026-04-23 21:21 | 10.60346 | -61.29897 | 2222 ft | 158 kts | 9° |
| 2026-04-23 21:21 | 10.61466 | -61.30087 | 2622 ft | 167 kts | 351° |
| 2026-04-23 21:21 | 10.62605 | -61.30339 | 3096 ft | 167 kts | 352° |
| 2026-04-23 21:21 | 10.63748 | -61.30525 | 3501 ft | 174 kts | 355° |
| 2026-04-23 21:22 | 10.65011 | -61.30663 | 3768 ft | 190 kts | 0° |
| 2026-04-23 21:22 | 10.66306 | -61.30719 | 4343 ft | 185 kts | 3° |
| 2026-04-23 21:22 | 10.67597 | -61.30708 | 4835 ft | 186 kts | 3° |
| 2026-04-23 21:22 | 10.68892 | -61.30665 | 5324 ft | 186 kts | 4° |
| 2026-04-23 21:23 | 10.70197 | -61.30609 | 5808 ft | 188 kts | 5° |
| 2026-04-23 21:23 | 10.71516 | -61.30545 | 6280 ft | 190 kts | 5° |
| 2026-04-23 21:23 | 10.72840 | -61.30465 | 6707 ft | 191 kts | 5° |
| 2026-04-23 21:23 | 10.74171 | -61.30380 | 7067 ft | 193 kts | 4° |
| 2026-04-23 21:24 | 10.75514 | -61.30296 | 7351 ft | 194 kts | 5° |
| 2026-04-23 21:24 | 10.76852 | -61.30214 | 7632 ft | 196 kts | 4° |
| 2026-04-23 21:24 | 10.78215 | -61.30129 | 7924 ft | 197 kts | 4° |
| 2026-04-23 21:24 | 10.79583 | -61.30042 | 8218 ft | 197 kts | 4° |
| 2026-04-23 21:25 | 10.80960 | -61.29952 | 8502 ft | 199 kts | 4° |
| 2026-04-23 21:25 | 10.82345 | -61.29860 | 8783 ft | 200 kts | 4° |
| 2026-04-23 21:25 | 10.83724 | -61.29774 | 9071 ft | 201 kts | 3° |
| 2026-04-23 21:25 | 10.85123 | -61.29689 | 9353 ft | 202 kts | 3° |
| 2026-04-23 21:26 | 10.86530 | -61.29606 | 9627 ft | 203 kts | 3° |
| 2026-04-23 21:26 | 10.87949 | -61.29523 | 9889 ft | 204 kts | 3° |
| 2026-04-23 21:26 | 10.89372 | -61.29440 | 10138 ft | 204 kts | 2° |
| 2026-04-23 21:26 | 10.90797 | -61.29358 | 10372 ft | 206 kts | 2° |
| 2026-04-23 21:27 | 10.92239 | -61.29277 | 10579 ft | 209 kts | 2° |
| 2026-04-23 21:27 | 10.93699 | -61.29194 | 10812 ft | 210 kts | 2° |
| 2026-04-23 21:27 | 10.95143 | -61.29115 | 11053 ft | 210 kts | 2° |
| 2026-04-23 21:27 | 10.96611 | -61.29029 | 11275 ft | 212 kts | 2° |
| 2026-04-23 21:28 | 10.98085 | -61.28946 | 11504 ft | 213 kts | 1° |
| 2026-04-23 21:28 | 10.99565 | -61.28862 | 11731 ft | 214 kts | 2° |
| 2026-04-23 21:28 | 11.01048 | -61.28778 | 11970 ft | 213 kts | 1° |
| 2026-04-23 21:28 | 11.02541 | -61.28693 | 12173 ft | 215 kts | 0° |
| 2026-04-23 21:29 | 11.04044 | -61.28610 | 12390 ft | 216 kts | 2° |
| 2026-04-23 21:29 | 11.05548 | -61.28526 | 12629 ft | 216 kts | 1° |
| 2026-04-23 21:29 | 11.07053 | -61.28440 | 12837 ft | 218 kts | 1° |
| 2026-04-23 21:29 | 11.08565 | -61.28354 | 13043 ft | 218 kts | 1° |
| 2026-04-23 21:30 | 11.10088 | -61.28268 | 13249 ft | 219 kts | 0° |
| 2026-04-23 21:30 | 11.11611 | -61.28191 | 13462 ft | 219 kts | 1° |
| 2026-04-23 21:30 | 11.13137 | -61.28113 | 13647 ft | 220 kts | 1° |
| 2026-04-23 21:30 | 11.14672 | -61.28031 | 13806 ft | 221 kts | 0° |
| 2026-04-23 21:31 | 11.16212 | -61.27951 | 13968 ft | 221 kts | 1° |
| 2026-04-23 21:31 | 11.17748 | -61.27872 | 14135 ft | 222 kts | 1° |
| 2026-04-23 21:31 | 11.19295 | -61.27785 | 14302 ft | 223 kts | 1° |
| 2026-04-23 21:31 | 11.20850 | -61.27696 | 14490 ft | 223 kts | 2° |
| 2026-04-23 21:32 | 11.22402 | -61.27610 | 14679 ft | 223 kts | 1° |
| 2026-04-23 21:32 | 11.23933 | -61.27521 | 14849 ft | 224 kts | 2° |
| 2026-04-23 21:32 | 11.25506 | -61.27425 | 14926 ft | 229 kts | 1° |
| 2026-04-23 21:32 | 11.27123 | -61.27329 | 14968 ft | 235 kts | 1° |
| 2026-04-23 21:33 | 11.28782 | -61.27233 | 14991 ft | 241 kts | 1° |
| 2026-04-23 21:33 | 11.30476 | -61.27130 | 15001 ft | 246 kts | 2° |
| 2026-04-23 21:33 | 11.32196 | -61.27025 | 15005 ft | 249 kts | 2° |
| 2026-04-23 21:33 | 11.33943 | -61.26920 | 15008 ft | 252 kts | 2° |
| 2026-04-23 21:34 | 11.35684 | -61.26817 | 15008 ft | 255 kts | 1° |
| 2026-04-23 21:34 | 11.37461 | -61.26704 | 15009 ft | 257 kts | 2° |
| 2026-04-23 21:34 | 11.39250 | -61.26596 | 15010 ft | 258 kts | 2° |
| 2026-04-23 21:34 | 11.41048 | -61.26486 | 15010 ft | 259 kts | 1° |
| 2026-04-23 21:35 | 11.42851 | -61.26379 | 15011 ft | 260 kts | 2° |
| 2026-04-23 21:35 | 11.44662 | -61.26280 | 15011 ft | 260 kts | 2° |
| 2026-04-23 21:35 | 11.46476 | -61.26181 | 15010 ft | 261 kts | 2° |
| 2026-04-23 21:35 | 11.48295 | -61.26078 | 15010 ft | 261 kts | 1° |
| 2026-04-23 21:36 | 11.51911 | -61.25862 | 15012 ft | 262 kts | 2° |
| 2026-04-23 21:36 | 11.53734 | -61.25815 | 15012 ft | 261 kts | 356° |
| 2026-04-23 21:36 | 11.55548 | -61.25933 | 15013 ft | 261 kts | 353° |
| 2026-04-23 21:37 | 11.57357 | -61.26105 | 15014 ft | 261 kts | 353° |
| 2026-04-23 21:37 | 11.59163 | -61.26272 | 15013 ft | 261 kts | 353° |
| 2026-04-23 21:37 | 11.60971 | -61.26417 | 15014 ft | 261 kts | 354° |
| 2026-04-23 21:37 | 11.62780 | -61.26549 | 15014 ft | 261 kts | 354° |
| 2026-04-23 21:38 | 11.64573 | -61.26669 | 15013 ft | 261 kts | 354° |
| 2026-04-23 21:38 | 11.66384 | -61.26791 | 15013 ft | 261 kts | 354° |
| 2026-04-23 21:38 | 11.68197 | -61.26918 | 15013 ft | 261 kts | 354° |
| 2026-04-23 21:38 | 11.70009 | -61.27048 | 15012 ft | 261 kts | 354° |
| 2026-04-23 21:39 | 11.71822 | -61.27165 | 15013 ft | 261 kts | 354° |
| 2026-04-23 21:39 | 11.73635 | -61.27278 | 15013 ft | 261 kts | 354° |
| 2026-04-23 21:39 | 11.75448 | -61.27395 | 15015 ft | 261 kts | 354° |
| 2026-04-23 21:39 | 11.77238 | -61.27516 | 15014 ft | 261 kts | 354° |
| 2026-04-23 21:40 | 11.79074 | -61.27640 | 15016 ft | 261 kts | 354° |
| 2026-04-23 21:40 | 11.80886 | -61.27770 | 15017 ft | 261 kts | 354° |
| 2026-04-23 21:40 | 11.82674 | -61.27899 | 15016 ft | 261 kts | 354° |
| 2026-04-23 21:40 | 11.84489 | -61.28024 | 15015 ft | 261 kts | 354° |
| 2026-04-23 21:41 | 11.86299 | -61.28148 | 15012 ft | 261 kts | 354° |
| 2026-04-23 21:41 | 11.88115 | -61.28277 | 15013 ft | 261 kts | 353° |
| 2026-04-23 21:41 | 11.89928 | -61.28400 | 15015 ft | 261 kts | 354° |
| 2026-04-23 21:41 | 11.91739 | -61.28523 | 15016 ft | 261 kts | 354° |
| 2026-04-23 21:42 | 11.93529 | -61.28649 | 15016 ft | 260 kts | 354° |
| 2026-04-23 21:42 | 11.95334 | -61.28776 | 15017 ft | 260 kts | 354° |
| 2026-04-23 21:42 | 11.97144 | -61.28900 | 15016 ft | 260 kts | 354° |
| 2026-04-23 21:42 | 11.98951 | -61.29027 | 15016 ft | 260 kts | 354° |
| 2026-04-23 21:43 | 12.00764 | -61.29156 | 15016 ft | 260 kts | 354° |
| 2026-04-23 21:43 | 12.02572 | -61.29280 | 15020 ft | 260 kts | 354° |
| 2026-04-23 21:43 | 12.04381 | -61.29402 | 15019 ft | 260 kts | 354° |
| 2026-04-23 21:43 | 12.06189 | -61.29530 | 15018 ft | 260 kts | 354° |
| 2026-04-23 21:44 | 12.07386 | -61.29614 | 15018 ft | 260 kts | 354° |
| 2026-04-23 21:44 | 12.09197 | -61.29737 | 15020 ft | 260 kts | 354° |
| 2026-04-23 21:44 | 12.11008 | -61.29863 | 15019 ft | 261 kts | 354° |
| 2026-04-23 21:44 | 12.13405 | -61.30033 | 15019 ft | 260 kts | 354° |
| 2026-04-23 21:45 | 12.14626 | -61.30118 | 15019 ft | 261 kts | 354° |
| 2026-04-23 21:45 | 12.16438 | -61.30241 | 15019 ft | 261 kts | 354° |
| 2026-04-23 21:45 | 12.18247 | -61.30368 | 15017 ft | 260 kts | 354° |
| 2026-04-23 21:45 | 12.20054 | -61.30494 | 15019 ft | 260 kts | 354° |
| 2026-04-23 21:46 | 12.21862 | -61.30619 | 15018 ft | 260 kts | 354° |
| 2026-04-23 21:46 | 12.23648 | -61.30745 | 15018 ft | 260 kts | 354° |
| 2026-04-23 21:46 | 12.25456 | -61.30873 | 15018 ft | 260 kts | 354° |
| 2026-04-23 21:46 | 12.27267 | -61.30996 | 15018 ft | 261 kts | 354° |
| 2026-04-23 21:47 | 12.29080 | -61.31120 | 15024 ft | 261 kts | 354° |
| 2026-04-23 21:47 | 12.30893 | -61.31248 | 15023 ft | 261 kts | 354° |
| 2026-04-23 21:47 | 12.32706 | -61.31375 | 15023 ft | 261 kts | 354° |
| 2026-04-23 21:47 | 12.34518 | -61.31498 | 15023 ft | 261 kts | 354° |
| 2026-04-23 21:48 | 12.36314 | -61.31625 | 15019 ft | 261 kts | 354° |
| 2026-04-23 21:48 | 12.38128 | -61.31752 | 15019 ft | 261 kts | 354° |
| 2026-04-23 21:48 | 12.39948 | -61.31877 | 15017 ft | 261 kts | 354° |
| 2026-04-23 21:48 | 12.41763 | -61.32003 | 15021 ft | 261 kts | 354° |
| 2026-04-23 21:49 | 12.43578 | -61.32133 | 15021 ft | 261 kts | 353° |
| 2026-04-23 21:49 | 12.45392 | -61.32259 | 15021 ft | 261 kts | 354° |
| 2026-04-23 21:49 | 12.47209 | -61.32384 | 15022 ft | 261 kts | 354° |
| 2026-04-23 21:49 | 12.49021 | -61.32511 | 15022 ft | 261 kts | 354° |
| 2026-04-23 21:50 | 12.50812 | -61.32635 | 15023 ft | 261 kts | 354° |
| 2026-04-23 21:50 | 12.52628 | -61.32759 | 15022 ft | 261 kts | 354° |
| 2026-04-23 21:50 | 12.54440 | -61.32889 | 15024 ft | 261 kts | 354° |
| 2026-04-23 21:50 | 12.56254 | -61.33018 | 15024 ft | 261 kts | 354° |
| 2026-04-23 21:51 | 12.58069 | -61.33143 | 15020 ft | 261 kts | 354° |
| 2026-04-23 21:51 | 12.59885 | -61.33267 | 15020 ft | 261 kts | 354° |
| 2026-04-23 21:51 | 12.61702 | -61.33396 | 15022 ft | 261 kts | 354° |
| 2026-04-23 21:51 | 12.63493 | -61.33520 | 15022 ft | 261 kts | 354° |
| 2026-04-23 21:52 | 12.65311 | -61.33645 | 15024 ft | 261 kts | 354° |
| 2026-04-23 21:52 | 12.67132 | -61.33773 | 15006 ft | 262 kts | 354° |
| 2026-04-23 21:52 | 12.68956 | -61.33902 | 14998 ft | 262 kts | 354° |
| 2026-04-23 21:52 | 12.70770 | -61.33826 | 14990 ft | 262 kts | 10° |
| 2026-04-23 21:53 | 12.72543 | -61.33356 | 14988 ft | 264 kts | 14° |
| 2026-04-23 21:53 | 12.74284 | -61.32829 | 14994 ft | 264 kts | 15° |
| 2026-04-23 21:53 | 12.76052 | -61.32308 | 14989 ft | 264 kts | 14° |
| 2026-04-23 21:53 | 12.77829 | -61.31839 | 14994 ft | 263 kts | 12° |
| 2026-04-23 21:54 | 12.79608 | -61.31396 | 15001 ft | 263 kts | 12° |
| 2026-04-23 21:54 | 12.81388 | -61.30949 | 14998 ft | 263 kts | 12° |
| 2026-04-23 21:54 | 12.83171 | -61.30503 | 14997 ft | 263 kts | 12° |
| 2026-04-23 21:54 | 12.84928 | -61.30061 | 15001 ft | 263 kts | 12° |
| 2026-04-23 21:55 | 12.86709 | -61.29613 | 14997 ft | 263 kts | 12° |
| 2026-04-23 21:55 | 12.88491 | -61.29165 | 14994 ft | 263 kts | 12° |
| 2026-04-23 21:55 | 12.90270 | -61.28714 | 14997 ft | 263 kts | 12° |
| 2026-04-23 21:55 | 12.92051 | -61.28266 | 14997 ft | 263 kts | 12° |
| 2026-04-23 21:56 | 12.93826 | -61.27819 | 14992 ft | 263 kts | 12° |
| 2026-04-23 21:56 | 12.95601 | -61.27370 | 14996 ft | 263 kts | 12° |
| 2026-04-23 21:56 | 12.97385 | -61.26921 | 15002 ft | 263 kts | 12° |
| 2026-04-23 21:56 | 12.99164 | -61.26474 | 14998 ft | 263 kts | 13° |
| 2026-04-23 21:57 | 13.00922 | -61.26029 | 14993 ft | 264 kts | 12° |
| 2026-04-23 21:57 | 13.02704 | -61.25582 | 14993 ft | 263 kts | 12° |
| 2026-04-23 21:57 | 13.04487 | -61.25132 | 14996 ft | 263 kts | 12° |
| 2026-04-23 21:57 | 13.06263 | -61.24682 | 14994 ft | 263 kts | 12° |
| 2026-04-23 21:58 | 13.08042 | -61.24237 | 15000 ft | 263 kts | 12° |
| 2026-04-23 21:58 | 13.09820 | -61.23787 | 15000 ft | 263 kts | 12° |
| 2026-04-23 21:58 | 13.11600 | -61.23337 | 15000 ft | 263 kts | 12° |
| 2026-04-23 21:58 | 13.13382 | -61.22889 | 15001 ft | 263 kts | 12° |
| 2026-04-23 21:59 | 13.15138 | -61.22445 | 15000 ft | 263 kts | 12° |
| 2026-04-23 21:59 | 13.16915 | -61.21996 | 15007 ft | 263 kts | 13° |
| 2026-04-23 21:59 | 13.18694 | -61.21544 | 15005 ft | 264 kts | 12° |
| 2026-04-23 22:00 | 13.22257 | -61.20643 | 15000 ft | 264 kts | 13° |
| 2026-04-23 22:00 | 13.24039 | -61.20193 | 14997 ft | 264 kts | 13° |
| 2026-04-23 22:00 | 13.25824 | -61.19742 | 15002 ft | 264 kts | 13° |
| 2026-04-23 22:00 | 13.27608 | -61.19292 | 14997 ft | 264 kts | 13° |
| 2026-04-23 22:01 | 13.29390 | -61.18841 | 14992 ft | 264 kts | 12° |
| 2026-04-23 22:01 | 13.31176 | -61.18390 | 14912 ft | 267 kts | 12° |
| 2026-04-23 22:01 | 13.33019 | -61.17925 | 14598 ft | 279 kts | 13° |
| 2026-04-23 22:01 | 13.34911 | -61.17445 | 14262 ft | 288 kts | 13° |
| 2026-04-23 22:02 | 13.36891 | -61.16945 | 13943 ft | 295 kts | 13° |
| 2026-04-23 22:02 | 13.38907 | -61.16434 | 13587 ft | 300 kts | 13° |
| 2026-04-23 22:02 | 13.40948 | -61.15917 | 13261 ft | 302 kts | 13° |
| 2026-04-23 22:02 | 13.42977 | -61.15406 | 13124 ft | 298 kts | 13° |
| 2026-04-23 22:03 | 13.44972 | -61.14900 | 13059 ft | 292 kts | 13° |
| 2026-04-23 22:03 | 13.46905 | -61.14411 | 13034 ft | 287 kts | 13° |
| 2026-04-23 22:03 | 13.48832 | -61.13926 | 13014 ft | 282 kts | 13° |
| 2026-04-23 22:03 | 13.50707 | -61.13448 | 12853 ft | 275 kts | 13° |
| 2026-04-23 22:04 | 13.52579 | -61.12974 | 12455 ft | 279 kts | 12° |
| 2026-04-23 22:04 | 13.54472 | -61.12497 | 12034 ft | 282 kts | 12° |
| 2026-04-23 22:04 | 13.56387 | -61.12012 | 11616 ft | 284 kts | 12° |
| 2026-04-23 22:04 | 13.58315 | -61.11522 | 11212 ft | 285 kts | 12° |
| 2026-04-23 22:05 | 13.60219 | -61.11039 | 10817 ft | 285 kts | 12° |
| 2026-04-23 22:05 | 13.62148 | -61.10551 | 10424 ft | 286 kts | 12° |
| 2026-04-23 22:05 | 13.64083 | -61.10060 | 10033 ft | 285 kts | 12° |
| 2026-04-23 22:05 | 13.66011 | -61.09571 | 9621 ft | 285 kts | 12° |
| 2026-04-23 22:06 | 13.67931 | -61.09384 | 9274 ft | 269 kts | 349° |
| 2026-04-23 22:06 | 13.69572 | -61.10125 | 8872 ft | 253 kts | 321° |
| 2026-04-23 22:06 | 13.70957 | -61.11202 | 8446 ft | 247 kts | 322° |
| 2026-04-23 22:06 | 13.72382 | -61.12163 | 8030 ft | 244 kts | 327° |
| 2026-04-23 22:07 | 13.73870 | -61.12943 | 7630 ft | 242 kts | 334° |
| 2026-04-23 22:07 | 13.75116 | -61.13454 | 7309 ft | 241 kts | 338° |
| 2026-04-23 22:09 | 13.75133 | -61.13460 | 7305 ft | 241 kts | 338° |
| 2026-04-23 22:09 | 13.76708 | -61.14036 | 6902 ft | 239 kts | 339° |
| 2026-04-23 22:09 | 13.78274 | -61.14606 | 6503 ft | 238 kts | 339° |
| 2026-04-23 22:10 | 13.79823 | -61.15186 | 6135 ft | 235 kts | 339° |
| 2026-04-23 22:10 | 13.81346 | -61.15765 | 5781 ft | 232 kts | 339° |
| 2026-04-23 22:10 | 13.82849 | -61.16341 | 5445 ft | 228 kts | 339° |
| 2026-04-23 22:10 | 13.84324 | -61.16904 | 5168 ft | 224 kts | 339° |
| 2026-04-23 22:11 | 13.85784 | -61.17413 | 4878 ft | 217 kts | 350° |
| 2026-04-23 22:11 | 13.87229 | -61.17178 | 4589 ft | 213 kts | 30° |
| 2026-04-23 22:11 | 13.88201 | -61.16108 | 4299 ft | 207 kts | 60° |
| 2026-04-23 22:11 | 13.88937 | -61.14835 | 3999 ft | 206 kts | 60° |
| 2026-04-23 22:12 | 13.89655 | -61.13561 | 3713 ft | 205 kts | 59° |
| 2026-04-23 22:12 | 13.90461 | -61.12345 | 3399 ft | 206 kts | 54° |
| 2026-04-23 22:12 | 13.91396 | -61.11198 | 2982 ft | 212 kts | 48° |
| 2026-04-23 22:12 | 13.92454 | -61.10126 | 2570 ft | 215 kts | 43° |
| 2026-04-23 22:13 | 13.93592 | -61.09113 | 2159 ft | 217 kts | 40° |
| 2026-04-23 22:13 | 13.94709 | -61.08162 | 2220 ft | 195 kts | 41° |
| 2026-04-23 22:13 | 13.95710 | -61.07333 | 2180 ft | 172 kts | 39° |
| 2026-04-23 22:13 | 13.96575 | -61.06625 | 2023 ft | 156 kts | 40° |
| 2026-04-23 22:14 | 13.97421 | -61.05900 | 1586 ft | 157 kts | 42° |
| 2026-04-23 22:14 | 13.98232 | -61.05160 | 1173 ft | 154 kts | 42° |
| 2026-04-23 22:14 | 13.99020 | -61.04435 | 868 ft | 146 kts | 43° |
| 2026-04-23 22:14 | 13.99752 | -61.03770 | 685 ft | 133 kts | 45° |
| 2026-04-23 22:15 | 14.00431 | -61.03173 | 610 ft | 126 kts | 43° |
| 2026-04-23 22:15 | 14.01056 | -61.02577 | 528 ft | 125 kts | 54° |
| 2026-04-23 22:15 | 14.01381 | -61.01760 | 409 ft | 122 kts | 77° |
| 2026-04-23 22:15 | 14.01582 | -61.00937 | 184 ft | 113 kts | 77° |
| 2026-04-23 22:16 | 14.01769 | -61.00202 | 61 ft | 102 kts | 78° |
| 2026-04-23 22:16 | 14.01928 | -60.99564 | 23 ft | 59 kts | 74° |
| 2026-04-23 22:16 | 14.01980 | -60.99369 | 23 ft | 8 kts | 72° |
| 2026-04-23 22:16 | 14.02008 | -60.99325 | 22 ft | 4 kts | 79° |
| 2026-04-23 22:17 | 14.01986 | -60.99325 | 24 ft | 8 kts | 222° |
| 2026-04-23 22:17 | 14.01973 | -60.99398 | 24 ft | 12 kts | 262° |
| 2026-04-23 22:17 | 14.01985 | -60.99479 | 25 ft | 10 kts | 290° |
| 2026-04-23 22:17 | 14.02001 | -60.99538 | 24 ft | 6 kts | 278° |
| 2026-04-23 22:18 | 14.02001 | -60.99570 | 24 ft | 2 kts | 301° |
| 2026-04-23 22:18 | 14.02025 | -60.99577 | 24 ft | 2 kts | 357° |
| 2026-04-23 22:18 | 14.02030 | -60.99569 | 24 ft | 3 kts | 62° |
| 2026-04-23 22:18 | 14.02023 | -60.99560 | 24 ft | 0 kts | 146° |